sensor_id;sensor_type;location;lat;lon;timestamp;temperature;humidity
13992;DHT22;7070;53.586;9.692;2023-04-01T00:01:45;11.30;86.60
13992;DHT22;7070;53.586;9.692;2023-04-01T00:04:12;11.30;86.60
13992;DHT22;7070;53.586;9.692;2023-04-01T00:06:39;11.30;86.60
13992;DHT22;7070;53.586;9.692;2023-04-01T00:09:06;11.30;86.70
13992;DHT22;7070;53.586;9.692;2023-04-01T00:11:33;11.30;86.70
13992;DHT22;7070;53.586;9.692;2023-04-01T00:14:00;11.30;86.70
13992;DHT22;7070;53.586;9.692;2023-04-01T00:16:27;11.30;86.80
13992;DHT22;7070;53.586;9.692;2023-04-01T00:18:55;11.30;86.90
13992;DHT22;7070;53.586;9.692;2023-04-01T00:21:22;11.30;86.80
13992;DHT22;7070;53.586;9.692;2023-04-01T00:23:49;11.30;86.90
13992;DHT22;7070;53.586;9.692;2023-04-01T00:26:16;11.30;86.90
13992;DHT22;7070;53.586;9.692;2023-04-01T00:28:45;11.30;86.90
13992;DHT22;7070;53.586;9.692;2023-04-01T00:31:13;11.40;87.10
13992;DHT22;7070;53.586;9.692;2023-04-01T00:33:40;11.30;86.90
13992;DHT22;7070;53.586;9.692;2023-04-01T00:36:10;11.30;86.80
13992;DHT22;7070;53.586;9.692;2023-04-01T00:38:38;11.30;86.90
13992;DHT22;7070;53.586;9.692;2023-04-01T00:41:06;11.30;86.90
13992;DHT22;7070;53.586;9.692;2023-04-01T00:43:34;11.30;86.90
13992;DHT22;7070;53.586;9.692;2023-04-01T00:46:01;11.30;86.90
13992;DHT22;7070;53.586;9.692;2023-04-01T00:48:30;11.40;87.10
13992;DHT22;7070;53.586;9.692;2023-04-01T00:51:00;11.30;86.80
13992;DHT22;7070;53.586;9.692;2023-04-01T00:53:30;11.30;86.90
13992;DHT22;7070;53.586;9.692;2023-04-01T00:56:05;11.30;87.00
13992;DHT22;7070;53.586;9.692;2023-04-01T00:58:38;11.30;87.00
13992;DHT22;7070;53.586;9.692;2023-04-01T01:01:08;11.30;87.00
13992;DHT22;7070;53.586;9.692;2023-04-01T01:03:35;11.30;87.10
13992;DHT22;7070;53.586;9.692;2023-04-01T01:06:11;11.30;87.10
13992;DHT22;7070;53.586;9.692;2023-04-01T01:09:06;11.30;87.20
13992;DHT22;7070;53.586;9.692;2023-04-01T01:11:37;11.20;87.30
13992;DHT22;7070;53.586;9.692;2023-04-01T01:14:12;11.30;87.40
13992;DHT22;7070;53.586;9.692;2023-04-01T01:16:43;11.30;87.50
13992;DHT22;7070;53.586;9.692;2023-04-01T01:19:28;11.30;87.60
13992;DHT22;7070;53.586;9.692;2023-04-01T01:22:15;11.30;87.50
13992;DHT22;7070;53.586;9.692;2023-04-01T01:24:57;11.30;87.60
13992;DHT22;7070;53.586;9.692;2023-04-01T01:27:32;11.30;87.70
13992;DHT22;7070;53.586;9.692;2023-04-01T01:30:13;11.30;87.70
13992;DHT22;7070;53.586;9.692;2023-04-01T01:33:05;11.30;87.70
13992;DHT22;7070;53.586;9.692;2023-04-01T01:35:37;11.30;87.70
13992;DHT22;7070;53.586;9.692;2023-04-01T01:38:08;11.40;87.80
13992;DHT22;7070;53.586;9.692;2023-04-01T01:40:37;11.40;87.80
13992;DHT22;7070;53.586;9.692;2023-04-01T01:43:09;11.50;87.90
13992;DHT22;7070;53.586;9.692;2023-04-01T01:45:43;11.50;87.90
13992;DHT22;7070;53.586;9.692;2023-04-01T01:48:11;11.40;87.80
13992;DHT22;7070;53.586;9.692;2023-04-01T01:50:41;11.50;87.90
13992;DHT22;7070;53.586;9.692;2023-04-01T01:53:11;11.50;87.90
13992;DHT22;7070;53.586;9.692;2023-04-01T01:55:40;11.50;87.80
13992;DHT22;7070;53.586;9.692;2023-04-01T01:58:11;11.50;87.90
13992;DHT22;7070;53.586;9.692;2023-04-01T02:00:43;11.50;87.90
13992;DHT22;7070;53.586;9.692;2023-04-01T02:03:12;11.50;87.80
13992;DHT22;7070;53.586;9.692;2023-04-01T02:05:41;11.60;87.90
13992;DHT22;7070;53.586;9.692;2023-04-01T02:08:12;11.60;87.80
13992;DHT22;7070;53.586;9.692;2023-04-01T02:10:45;11.50;87.60
13992;DHT22;7070;53.586;9.692;2023-04-01T02:13:17;11.50;87.60
13992;DHT22;7070;53.586;9.692;2023-04-01T02:15:47;11.60;87.70
13992;DHT22;7070;53.586;9.692;2023-04-01T02:18:15;11.50;87.60
13992;DHT22;7070;53.586;9.692;2023-04-01T02:20:45;11.50;87.60
13992;DHT22;7070;53.586;9.692;2023-04-01T02:23:12;11.50;88.30
13992;DHT22;7070;53.586;9.692;2023-04-01T02:25:41;11.50;87.60
13992;DHT22;7070;53.586;9.692;2023-04-01T02:28:09;11.50;87.60
13992;DHT22;7070;53.586;9.692;2023-04-01T02:30:38;11.40;87.50
13992;DHT22;7070;53.586;9.692;2023-04-01T02:33:06;11.40;87.40
13992;DHT22;7070;53.586;9.692;2023-04-01T02:35:34;11.40;87.50
13992;DHT22;7070;53.586;9.692;2023-04-01T02:38:03;11.40;87.40
13992;DHT22;7070;53.586;9.692;2023-04-01T02:40:45;11.30;87.30
13992;DHT22;7070;53.586;9.692;2023-04-01T02:43:12;11.30;88.10
13992;DHT22;7070;53.586;9.692;2023-04-01T02:45:39;11.20;87.40
13992;DHT22;7070;53.586;9.692;2023-04-01T02:48:06;11.20;87.50
13992;DHT22;7070;53.586;9.692;2023-04-01T02:50:33;11.20;87.60
13992;DHT22;7070;53.586;9.692;2023-04-01T02:53:00;11.30;87.80
13992;DHT22;7070;53.586;9.692;2023-04-01T02:55:29;11.20;87.80
13992;DHT22;7070;53.586;9.692;2023-04-01T02:57:56;11.20;87.90
13992;DHT22;7070;53.586;9.692;2023-04-01T03:00:23;11.20;87.90
13992;DHT22;7070;53.586;9.692;2023-04-01T03:02:50;11.20;88.70
13992;DHT22;7070;53.586;9.692;2023-04-01T03:05:17;11.30;88.90
13992;DHT22;7070;53.586;9.692;2023-04-01T03:07:45;11.30;88.50
13992;DHT22;7070;53.586;9.692;2023-04-01T03:10:12;11.30;88.20
13992;DHT22;7070;53.586;9.692;2023-04-01T03:12:40;11.30;88.20
13992;DHT22;7070;53.586;9.692;2023-04-01T03:15:10;11.30;88.20
13992;DHT22;7070;53.586;9.692;2023-04-01T03:17:37;11.30;88.20
13992;DHT22;7070;53.586;9.692;2023-04-01T03:20:05;11.30;88.20
13992;DHT22;7070;53.586;9.692;2023-04-01T03:22:33;11.30;88.20
13992;DHT22;7070;53.586;9.692;2023-04-01T03:25:00;11.30;88.20
13992;DHT22;7070;53.586;9.692;2023-04-01T03:27:27;11.30;88.10
13992;DHT22;7070;53.586;9.692;2023-04-01T03:29:56;11.30;88.20
13992;DHT22;7070;53.586;9.692;2023-04-01T03:32:22;11.40;88.20
13992;DHT22;7070;53.586;9.692;2023-04-01T03:34:49;11.30;88.10
13992;DHT22;7070;53.586;9.692;2023-04-01T03:37:16;11.40;88.20
13992;DHT22;7070;53.586;9.692;2023-04-01T03:39:43;11.30;88.10
13992;DHT22;7070;53.586;9.692;2023-04-01T03:42:11;11.40;88.20
13992;DHT22;7070;53.586;9.692;2023-04-01T03:44:38;11.40;88.30
13992;DHT22;7070;53.586;9.692;2023-04-01T03:47:06;11.40;88.20
13992;DHT22;7070;53.586;9.692;2023-04-01T03:49:34;11.40;88.10
13992;DHT22;7070;53.586;9.692;2023-04-01T03:52:01;11.40;88.10
13992;DHT22;7070;53.586;9.692;2023-04-01T03:54:28;11.40;88.10
13992;DHT22;7070;53.586;9.692;2023-04-01T03:56:55;11.30;88.00
13992;DHT22;7070;53.586;9.692;2023-04-01T03:59:23;11.30;88.00
13992;DHT22;7070;53.586;9.692;2023-04-01T04:01:50;11.30;88.00
13992;DHT22;7070;53.586;9.692;2023-04-01T04:04:18;11.40;88.10
13992;DHT22;7070;53.586;9.692;2023-04-01T04:06:45;11.30;88.00
13992;DHT22;7070;53.586;9.692;2023-04-01T04:09:12;11.30;88.10
13992;DHT22;7070;53.586;9.692;2023-04-01T04:11:39;11.30;88.10
13992;DHT22;7070;53.586;9.692;2023-04-01T04:14:06;11.20;88.10
13992;DHT22;7070;53.586;9.692;2023-04-01T04:16:34;11.30;88.20
13992;DHT22;7070;53.586;9.692;2023-04-01T04:19:02;11.30;88.20
13992;DHT22;7070;53.586;9.692;2023-04-01T04:21:31;11.30;88.30
13992;DHT22;7070;53.586;9.692;2023-04-01T04:23:58;11.20;88.20
13992;DHT22;7070;53.586;9.692;2023-04-01T04:26:26;11.20;88.20
13992;DHT22;7070;53.586;9.692;2023-04-01T04:28:54;11.20;88.20
13992;DHT22;7070;53.586;9.692;2023-04-01T04:31:22;11.20;88.20
13992;DHT22;7070;53.586;9.692;2023-04-01T04:33:50;11.20;88.30
13992;DHT22;7070;53.586;9.692;2023-04-01T04:36:17;11.20;88.40
13992;DHT22;7070;53.586;9.692;2023-04-01T04:38:46;11.20;88.40
13992;DHT22;7070;53.586;9.692;2023-04-01T04:41:13;11.20;88.50
13992;DHT22;7070;53.586;9.692;2023-04-01T04:43:42;11.20;89.10
13992;DHT22;7070;53.586;9.692;2023-04-01T04:46:14;11.20;88.50
13992;DHT22;7070;53.586;9.692;2023-04-01T04:48:41;11.20;88.50
13992;DHT22;7070;53.586;9.692;2023-04-01T04:51:13;11.20;88.50
13992;DHT22;7070;53.586;9.692;2023-04-01T04:53:40;11.20;88.50
13992;DHT22;7070;53.586;9.692;2023-04-01T04:56:08;11.30;88.60
13992;DHT22;7070;53.586;9.692;2023-04-01T04:58:35;11.30;88.60
13992;DHT22;7070;53.586;9.692;2023-04-01T05:01:06;11.20;88.60
13992;DHT22;7070;53.586;9.692;2023-04-01T05:03:33;11.20;88.60
13992;DHT22;7070;53.586;9.692;2023-04-01T05:06:00;11.20;88.70
13992;DHT22;7070;53.586;9.692;2023-04-01T05:08:27;11.20;88.60
13992;DHT22;7070;53.586;9.692;2023-04-01T05:10:54;11.20;88.70
13992;DHT22;7070;53.586;9.692;2023-04-01T05:13:22;11.20;88.80
13992;DHT22;7070;53.586;9.692;2023-04-01T05:15:49;11.20;88.70
13992;DHT22;7070;53.586;9.692;2023-04-01T05:18:16;11.20;88.80
13992;DHT22;7070;53.586;9.692;2023-04-01T05:20:46;11.20;88.80
13992;DHT22;7070;53.586;9.692;2023-04-01T05:23:14;11.20;88.70
13992;DHT22;7070;53.586;9.692;2023-04-01T05:25:41;11.20;88.50
13992;DHT22;7070;53.586;9.692;2023-04-01T05:28:08;11.10;88.20
13992;DHT22;7070;53.586;9.692;2023-04-01T05:30:39;11.00;87.90
13992;DHT22;7070;53.586;9.692;2023-04-01T05:33:06;10.90;87.80
13992;DHT22;7070;53.586;9.692;2023-04-01T05:35:34;10.80;87.60
13992;DHT22;7070;53.586;9.692;2023-04-01T05:38:04;10.70;87.40
13992;DHT22;7070;53.586;9.692;2023-04-01T05:40:32;10.60;87.40
13992;DHT22;7070;53.586;9.692;2023-04-01T05:42:59;10.50;87.50
13992;DHT22;7070;53.586;9.692;2023-04-01T05:45:26;10.50;87.60
13992;DHT22;7070;53.586;9.692;2023-04-01T05:47:55;10.40;87.80
13992;DHT22;7070;53.586;9.692;2023-04-01T05:50:22;10.30;87.70
13992;DHT22;7070;53.586;9.692;2023-04-01T05:52:49;10.20;87.70
13992;DHT22;7070;53.586;9.692;2023-04-01T05:55:16;10.10;87.70
13992;DHT22;7070;53.586;9.692;2023-04-01T05:57:44;10.10;87.80
13992;DHT22;7070;53.586;9.692;2023-04-01T06:00:12;10.10;87.80
13992;DHT22;7070;53.586;9.692;2023-04-01T06:02:40;9.90;88.70
13992;DHT22;7070;53.586;9.692;2023-04-01T06:05:15;9.90;88.80
13992;DHT22;7070;53.586;9.692;2023-04-01T06:07:43;9.80;88.70
13992;DHT22;7070;53.586;9.692;2023-04-01T06:10:13;9.80;88.80
13992;DHT22;7070;53.586;9.692;2023-04-01T06:12:50;9.70;88.80
13992;DHT22;7070;53.586;9.692;2023-04-01T06:15:28;9.70;89.00
13992;DHT22;7070;53.586;9.692;2023-04-01T06:21:02;9.50;89.00
13992;DHT22;7070;53.586;9.692;2023-04-01T06:23:41;9.50;88.90
13992;DHT22;7070;53.586;9.692;2023-04-01T06:26:25;9.50;89.00
13992;DHT22;7070;53.586;9.692;2023-04-01T06:32:03;9.40;89.10
13992;DHT22;7070;53.586;9.692;2023-04-01T06:34:54;9.40;89.20
13992;DHT22;7070;53.586;9.692;2023-04-01T06:37:50;9.30;89.10
13992;DHT22;7070;53.586;9.692;2023-04-01T06:40:41;9.30;89.20
13992;DHT22;7070;53.586;9.692;2023-04-01T06:43:17;9.20;89.20
13992;DHT22;7070;53.586;9.692;2023-04-01T06:45:49;9.20;89.20
13992;DHT22;7070;53.586;9.692;2023-04-01T06:48:29;9.20;89.10
13992;DHT22;7070;53.586;9.692;2023-04-01T06:51:10;9.20;89.20
13992;DHT22;7070;53.586;9.692;2023-04-01T06:53:47;9.20;89.30
13992;DHT22;7070;53.586;9.692;2023-04-01T06:56:20;9.00;89.00
13992;DHT22;7070;53.586;9.692;2023-04-01T06:58:50;9.10;89.10
13992;DHT22;7070;53.586;9.692;2023-04-01T07:01:23;9.10;89.10
13992;DHT22;7070;53.586;9.692;2023-04-01T07:03:55;9.00;89.00
13992;DHT22;7070;53.586;9.692;2023-04-01T07:06:27;9.00;89.00
13992;DHT22;7070;53.586;9.692;2023-04-01T07:08:59;9.00;89.60
13992;DHT22;7070;53.586;9.692;2023-04-01T07:11:31;9.00;89.50
13992;DHT22;7070;53.586;9.692;2023-04-01T07:14:01;9.00;88.90
13992;DHT22;7070;53.586;9.692;2023-04-01T07:16:31;9.00;88.90
13992;DHT22;7070;53.586;9.692;2023-04-01T07:19:02;9.00;88.80
13992;DHT22;7070;53.586;9.692;2023-04-01T07:21:33;9.00;89.40
13992;DHT22;7070;53.586;9.692;2023-04-01T07:24:08;9.00;88.70
13992;DHT22;7070;53.586;9.692;2023-04-01T07:26:36;9.00;88.70
13992;DHT22;7070;53.586;9.692;2023-04-01T07:29:08;9.10;88.80
13992;DHT22;7070;53.586;9.692;2023-04-01T07:31:53;9.10;88.70
13992;DHT22;7070;53.586;9.692;2023-04-01T07:34:26;9.10;88.70
13992;DHT22;7070;53.586;9.692;2023-04-01T07:36:57;9.10;88.60
13992;DHT22;7070;53.586;9.692;2023-04-01T07:39:34;9.10;88.40
13992;DHT22;7070;53.586;9.692;2023-04-01T07:42:08;9.20;88.60
13992;DHT22;7070;53.586;9.692;2023-04-01T07:44:45;9.10;88.50
13992;DHT22;7070;53.586;9.692;2023-04-01T07:47:24;9.20;88.40
13992;DHT22;7070;53.586;9.692;2023-04-01T07:50:02;9.20;89.00
13992;DHT22;7070;53.586;9.692;2023-04-01T07:52:41;9.10;88.10
13992;DHT22;7070;53.586;9.692;2023-04-01T07:55:15;9.10;88.00
13992;DHT22;7070;53.586;9.692;2023-04-01T07:57:50;9.10;87.90
13992;DHT22;7070;53.586;9.692;2023-04-01T08:00:21;9.20;88.10
13992;DHT22;7070;53.586;9.692;2023-04-01T08:03:10;9.10;87.80
13992;DHT22;7070;53.586;9.692;2023-04-01T08:05:50;9.20;87.90
13992;DHT22;7070;53.586;9.692;2023-04-01T08:08:28;9.10;87.80
13992;DHT22;7070;53.586;9.692;2023-04-01T08:11:07;9.10;87.80
13992;DHT22;7070;53.586;9.692;2023-04-01T08:13:42;9.00;88.30
13992;DHT22;7070;53.586;9.692;2023-04-01T08:16:16;9.00;87.70
13992;DHT22;7070;53.586;9.692;2023-04-01T08:18:53;9.00;87.70
13992;DHT22;7070;53.586;9.692;2023-04-01T08:21:25;9.00;87.70
13992;DHT22;7070;53.586;9.692;2023-04-01T08:23:56;9.00;87.70
13992;DHT22;7070;53.586;9.692;2023-04-01T08:26:32;9.00;87.80
13992;DHT22;7070;53.586;9.692;2023-04-01T08:29:05;9.00;87.80
13992;DHT22;7070;53.586;9.692;2023-04-01T08:31:38;8.90;87.50
13992;DHT22;7070;53.586;9.692;2023-04-01T08:34:10;8.90;87.50
13992;DHT22;7070;53.586;9.692;2023-04-01T08:36:43;8.80;87.40
13992;DHT22;7070;53.586;9.692;2023-04-01T08:39:16;8.80;87.40
13992;DHT22;7070;53.586;9.692;2023-04-01T08:42:16;8.80;87.40
13992;DHT22;7070;53.586;9.692;2023-04-01T08:45:15;8.80;87.40
13992;DHT22;7070;53.586;9.692;2023-04-01T08:48:00;8.70;87.40
13992;DHT22;7070;53.586;9.692;2023-04-01T08:53:47;8.70;87.60
13992;DHT22;7070;53.586;9.692;2023-04-01T08:56:18;8.70;87.50
13992;DHT22;7070;53.586;9.692;2023-04-01T08:59:04;8.70;87.50
13992;DHT22;7070;53.586;9.692;2023-04-01T09:02:00;8.70;87.50
13992;DHT22;7070;53.586;9.692;2023-04-01T09:04:46;8.70;87.60
13992;DHT22;7070;53.586;9.692;2023-04-01T09:07:30;8.70;87.50
13992;DHT22;7070;53.586;9.692;2023-04-01T09:10:23;8.80;87.60
13992;DHT22;7070;53.586;9.692;2023-04-01T09:13:20;8.80;87.70
13992;DHT22;7070;53.586;9.692;2023-04-01T09:16:18;8.80;88.20
13992;DHT22;7070;53.586;9.692;2023-04-01T09:19:17;8.90;87.30
13992;DHT22;7070;53.586;9.692;2023-04-01T09:22:08;8.90;87.20
13992;DHT22;7070;53.586;9.692;2023-04-01T09:24:52;9.00;87.30
13992;DHT22;7070;53.586;9.692;2023-04-01T09:27:30;9.00;87.20
13992;DHT22;7070;53.586;9.692;2023-04-01T09:36:03;9.20;87.00
13992;DHT22;7070;53.586;9.692;2023-04-01T09:38:42;9.10;86.70
13992;DHT22;7070;53.586;9.692;2023-04-01T09:41:18;9.20;86.80
13992;DHT22;7070;53.586;9.692;2023-04-01T09:44:00;9.20;86.90
13992;DHT22;7070;53.586;9.692;2023-04-01T09:46:39;9.20;87.00
13992;DHT22;7070;53.586;9.692;2023-04-01T09:52:24;9.20;87.00
13992;DHT22;7070;53.586;9.692;2023-04-01T09:55:00;9.30;86.70
13992;DHT22;7070;53.586;9.692;2023-04-01T09:58:01;9.30;86.50
13992;DHT22;7070;53.586;9.692;2023-04-01T10:00:53;9.30;86.40
13992;DHT22;7070;53.586;9.692;2023-04-01T10:07:14;9.30;86.30
13992;DHT22;7070;53.586;9.692;2023-04-01T10:22:29;9.30;86.00
13992;DHT22;7070;53.586;9.692;2023-04-01T10:28:34;9.40;86.20
13992;DHT22;7070;53.586;9.692;2023-04-01T10:31:20;9.50;86.10
13992;DHT22;7070;53.586;9.692;2023-04-01T10:37:23;9.60;86.40
13992;DHT22;7070;53.586;9.692;2023-04-01T10:40:21;9.60;85.30
13992;DHT22;7070;53.586;9.692;2023-04-01T10:43:11;9.60;85.20
13992;DHT22;7070;53.586;9.692;2023-04-01T10:46:13;9.60;85.20
13992;DHT22;7070;53.586;9.692;2023-04-01T10:52:24;9.60;85.80
13992;DHT22;7070;53.586;9.692;2023-04-01T10:55:07;9.60;85.00
13992;DHT22;7070;53.586;9.692;2023-04-01T10:58:02;9.60;84.90
13992;DHT22;7070;53.586;9.692;2023-04-01T11:00:56;9.70;85.00
13992;DHT22;7070;53.586;9.692;2023-04-01T11:10:16;9.80;85.10
13992;DHT22;7070;53.586;9.692;2023-04-01T11:13:17;9.90;85.00
13992;DHT22;7070;53.586;9.692;2023-04-01T11:16:21;10.00;83.90
13992;DHT22;7070;53.586;9.692;2023-04-01T11:19:13;10.10;84.00
13992;DHT22;7070;53.586;9.692;2023-04-01T11:27:55;10.20;83.20
13992;DHT22;7070;53.586;9.692;2023-04-01T11:30:32;10.20;83.00
13992;DHT22;7070;53.586;9.692;2023-04-01T11:33:03;10.30;82.60
13992;DHT22;7070;53.586;9.692;2023-04-01T11:35:59;10.30;83.00
13992;DHT22;7070;53.586;9.692;2023-04-01T11:38:45;10.10;82.20
13992;DHT22;7070;53.586;9.692;2023-04-01T11:41:26;10.10;82.30
13992;DHT22;7070;53.586;9.692;2023-04-01T11:44:17;10.00;82.20
13992;DHT22;7070;53.586;9.692;2023-04-01T11:47:07;10.00;82.30
13992;DHT22;7070;53.586;9.692;2023-04-01T11:49:47;10.00;82.30
13992;DHT22;7070;53.586;9.692;2023-04-01T11:52:38;10.00;82.20
13992;DHT22;7070;53.586;9.692;2023-04-01T11:55:23;10.10;82.10
13992;DHT22;7070;53.586;9.692;2023-04-01T11:58:00;10.10;82.70
13992;DHT22;7070;53.586;9.692;2023-04-01T12:00:59;10.10;81.90
13992;DHT22;7070;53.586;9.692;2023-04-01T12:03:51;10.00;81.80
13992;DHT22;7070;53.586;9.692;2023-04-01T12:06:29;10.00;81.80
13992;DHT22;7070;53.586;9.692;2023-04-01T12:09:03;10.00;82.00
13992;DHT22;7070;53.586;9.692;2023-04-01T12:11:36;9.90;83.00
13992;DHT22;7070;53.586;9.692;2023-04-01T12:14:11;9.90;82.90
13992;DHT22;7070;53.586;9.692;2023-04-01T12:16:52;9.90;82.90
13992;DHT22;7070;53.586;9.692;2023-04-01T12:19:29;9.90;82.80
13992;DHT22;7070;53.586;9.692;2023-04-01T12:22:10;9.90;82.60
13992;DHT22;7070;53.586;9.692;2023-04-01T12:24:48;9.80;82.30
13992;DHT22;7070;53.586;9.692;2023-04-01T12:27:41;9.80;82.40
13992;DHT22;7070;53.586;9.692;2023-04-01T12:30:32;9.80;83.20
13992;DHT22;7070;53.586;9.692;2023-04-01T12:33:20;9.70;82.70
13992;DHT22;7070;53.586;9.692;2023-04-01T12:35:58;9.70;82.80
13992;DHT22;7070;53.586;9.692;2023-04-01T12:38:31;9.80;82.80
13992;DHT22;7070;53.586;9.692;2023-04-01T12:41:09;9.90;82.80
13992;DHT22;7070;53.586;9.692;2023-04-01T12:44:22;9.80;82.40
13992;DHT22;7070;53.586;9.692;2023-04-01T12:50:16;9.70;82.20
13992;DHT22;7070;53.586;9.692;2023-04-01T12:53:02;9.60;82.00
13992;DHT22;7070;53.586;9.692;2023-04-01T12:55:38;9.50;81.90
13992;DHT22;7070;53.586;9.692;2023-04-01T13:01:47;9.40;82.10
13992;DHT22;7070;53.586;9.692;2023-04-01T13:04:48;9.40;82.00
13992;DHT22;7070;53.586;9.692;2023-04-01T13:07:48;9.30;82.00
13992;DHT22;7070;53.586;9.692;2023-04-01T13:10:30;9.30;82.10
13992;DHT22;7070;53.586;9.692;2023-04-01T13:13:09;9.20;81.90
13992;DHT22;7070;53.586;9.692;2023-04-01T13:15:44;9.20;81.90
13992;DHT22;7070;53.586;9.692;2023-04-01T13:18:24;9.20;81.90
13992;DHT22;7070;53.586;9.692;2023-04-01T13:21:02;9.20;81.90
13992;DHT22;7070;53.586;9.692;2023-04-01T13:23:49;9.10;81.70
13992;DHT22;7070;53.586;9.692;2023-04-01T13:26:23;9.10;81.90
13992;DHT22;7070;53.586;9.692;2023-04-01T13:28:58;9.10;81.90
13992;DHT22;7070;53.586;9.692;2023-04-01T13:31:38;9.10;81.90
13992;DHT22;7070;53.586;9.692;2023-04-01T13:34:29;9.00;81.80
13992;DHT22;7070;53.586;9.692;2023-04-01T13:37:05;9.00;81.80
13992;DHT22;7070;53.586;9.692;2023-04-01T13:42:43;8.80;81.80
13992;DHT22;7070;53.586;9.692;2023-04-01T13:45:16;8.90;81.90
13992;DHT22;7070;53.586;9.692;2023-04-01T13:51:10;8.90;82.00
13992;DHT22;7070;53.586;9.692;2023-04-01T13:56:54;8.90;81.90
13992;DHT22;7070;53.586;9.692;2023-04-01T13:59:55;8.80;81.50
13992;DHT22;7070;53.586;9.692;2023-04-01T14:02:45;8.80;81.60
13992;DHT22;7070;53.586;9.692;2023-04-01T14:05:28;8.80;81.60
13992;DHT22;7070;53.586;9.692;2023-04-01T14:08:09;8.80;81.60
13992;DHT22;7070;53.586;9.692;2023-04-01T14:10:43;8.70;81.50
13992;DHT22;7070;53.586;9.692;2023-04-01T14:13:20;8.70;81.70
13992;DHT22;7070;53.586;9.692;2023-04-01T14:16:20;8.80;82.00
13992;DHT22;7070;53.586;9.692;2023-04-01T14:19:12;8.80;81.90
13992;DHT22;7070;53.586;9.692;2023-04-01T14:21:49;8.80;81.70
13992;DHT22;7070;53.586;9.692;2023-04-01T14:24:32;8.90;81.60
13992;DHT22;7070;53.586;9.692;2023-04-01T14:30:34;8.80;81.20
13992;DHT22;7070;53.586;9.692;2023-04-01T14:33:10;8.70;81.00
13992;DHT22;7070;53.586;9.692;2023-04-01T14:35:41;8.70;81.10
13992;DHT22;7070;53.586;9.692;2023-04-01T14:38:35;8.60;81.10
13992;DHT22;7070;53.586;9.692;2023-04-01T14:41:19;8.60;81.10
13992;DHT22;7070;53.586;9.692;2023-04-01T14:44:05;8.60;81.20
13992;DHT22;7070;53.586;9.692;2023-04-01T14:47:07;8.60;81.10
13992;DHT22;7070;53.586;9.692;2023-04-01T14:49:36;8.60;81.00
13992;DHT22;7070;53.586;9.692;2023-04-01T14:52:11;8.50;80.70
13992;DHT22;7070;53.586;9.692;2023-04-01T14:54:41;7.40;79.80
13992;DHT22;7070;53.586;9.692;2023-04-01T14:57:12;8.50;80.80
13992;DHT22;7070;53.586;9.692;2023-04-01T14:59:40;8.40;80.80
13992;DHT22;7070;53.586;9.692;2023-04-01T15:02:21;8.40;80.80
13992;DHT22;7070;53.586;9.692;2023-04-01T15:04:57;8.40;80.60
13992;DHT22;7070;53.586;9.692;2023-04-01T15:11:01;8.30;80.70
13992;DHT22;7070;53.586;9.692;2023-04-01T15:14:01;8.30;80.80
13992;DHT22;7070;53.586;9.692;2023-04-01T15:16:36;8.30;80.80
13992;DHT22;7070;53.586;9.692;2023-04-01T15:19:14;8.30;80.70
13992;DHT22;7070;53.586;9.692;2023-04-01T15:21:59;8.30;80.90
13992;DHT22;7070;53.586;9.692;2023-04-01T15:24:39;8.30;81.00
13992;DHT22;7070;53.586;9.692;2023-04-01T15:27:21;8.20;81.20
13992;DHT22;7070;53.586;9.692;2023-04-01T15:33:16;8.10;80.60
13992;DHT22;7070;53.586;9.692;2023-04-01T15:35:51;8.10;80.60
13992;DHT22;7070;53.586;9.692;2023-04-01T15:38:30;8.10;80.70
13992;DHT22;7070;53.586;9.692;2023-04-01T15:41:05;8.00;80.70
13992;DHT22;7070;53.586;9.692;2023-04-01T15:43:41;7.90;80.80
13992;DHT22;7070;53.586;9.692;2023-04-01T15:46:19;7.90;80.90
13992;DHT22;7070;53.586;9.692;2023-04-01T15:48:57;7.90;81.10
13992;DHT22;7070;53.586;9.692;2023-04-01T15:51:44;7.80;81.20
13992;DHT22;7070;53.586;9.692;2023-04-01T15:54:32;7.80;81.40
13992;DHT22;7070;53.586;9.692;2023-04-01T15:57:11;7.80;81.50
13992;DHT22;7070;53.586;9.692;2023-04-01T16:02:47;7.80;81.50
13992;DHT22;7070;53.586;9.692;2023-04-01T16:05:31;7.80;81.60
13992;DHT22;7070;53.586;9.692;2023-04-01T16:08:16;7.80;81.50
13992;DHT22;7070;53.586;9.692;2023-04-01T16:10:54;7.70;81.40
13992;DHT22;7070;53.586;9.692;2023-04-01T16:13:35;7.80;81.30
13992;DHT22;7070;53.586;9.692;2023-04-01T16:16:17;7.80;81.20
13992;DHT22;7070;53.586;9.692;2023-04-01T16:18:55;7.80;81.30
13992;DHT22;7070;53.586;9.692;2023-04-01T16:21:36;7.70;81.10
13992;DHT22;7070;53.586;9.692;2023-04-01T16:24:13;7.60;80.90
13992;DHT22;7070;53.586;9.692;2023-04-01T16:26:47;7.60;80.90
13992;DHT22;7070;53.586;9.692;2023-04-01T16:29:21;7.60;80.90
13992;DHT22;7070;53.586;9.692;2023-04-01T16:31:54;7.60;80.90
13992;DHT22;7070;53.586;9.692;2023-04-01T16:34:27;7.60;80.90
13992;DHT22;7070;53.586;9.692;2023-04-01T16:37:03;7.60;80.90
13992;DHT22;7070;53.586;9.692;2023-04-01T16:39:37;7.60;80.90
13992;DHT22;7070;53.586;9.692;2023-04-01T16:42:34;7.60;81.00
13992;DHT22;7070;53.586;9.692;2023-04-01T16:45:19;7.60;81.00
13992;DHT22;7070;53.586;9.692;2023-04-01T16:47:50;7.50;81.00
13992;DHT22;7070;53.586;9.692;2023-04-01T16:50:21;7.50;81.00
13992;DHT22;7070;53.586;9.692;2023-04-01T16:52:59;7.50;81.00
13992;DHT22;7070;53.586;9.692;2023-04-01T16:55:44;7.50;81.00
13992;DHT22;7070;53.586;9.692;2023-04-01T16:58:20;7.40;81.00
13992;DHT22;7070;53.586;9.692;2023-04-01T17:00:49;7.40;81.10
13992;DHT22;7070;53.586;9.692;2023-04-01T17:03:21;7.40;81.20
13992;DHT22;7070;53.586;9.692;2023-04-01T17:05:57;7.30;81.10
13992;DHT22;7070;53.586;9.692;2023-04-01T17:08:38;7.30;81.10
13992;DHT22;7070;53.586;9.692;2023-04-01T17:11:12;7.30;81.10
13992;DHT22;7070;53.586;9.692;2023-04-01T17:13:47;7.30;81.30
13992;DHT22;7070;53.586;9.692;2023-04-01T17:16:52;7.30;81.10
13992;DHT22;7070;53.586;9.692;2023-04-01T17:22:25;7.20;80.90
13992;DHT22;7070;53.586;9.692;2023-04-01T17:25:17;7.10;81.10
13992;DHT22;7070;53.586;9.692;2023-04-01T17:27:52;7.10;81.10
13992;DHT22;7070;53.586;9.692;2023-04-01T17:30:27;7.10;81.20
13992;DHT22;7070;53.586;9.692;2023-04-01T17:33:19;7.10;81.10
13992;DHT22;7070;53.586;9.692;2023-04-01T17:35:56;7.00;81.20
13992;DHT22;7070;53.586;9.692;2023-04-01T17:38:40;6.90;81.10
13992;DHT22;7070;53.586;9.692;2023-04-01T17:41:19;7.00;81.30
13992;DHT22;7070;53.586;9.692;2023-04-01T17:43:58;6.90;81.20
13992;DHT22;7070;53.586;9.692;2023-04-01T17:46:34;6.90;81.30
13992;DHT22;7070;53.586;9.692;2023-04-01T17:49:19;6.90;81.30
13992;DHT22;7070;53.586;9.692;2023-04-01T17:51:54;6.90;81.40
13992;DHT22;7070;53.586;9.692;2023-04-01T17:54:28;6.80;81.30
13992;DHT22;7070;53.586;9.692;2023-04-01T17:57:07;6.90;81.40
13992;DHT22;7070;53.586;9.692;2023-04-01T17:59:51;6.90;81.40
13992;DHT22;7070;53.586;9.692;2023-04-01T18:02:27;6.80;81.10
13992;DHT22;7070;53.586;9.692;2023-04-01T18:05:13;6.80;81.10
13992;DHT22;7070;53.586;9.692;2023-04-01T18:10:43;6.80;80.80
13992;DHT22;7070;53.586;9.692;2023-04-01T18:16:26;6.80;80.70
13992;DHT22;7070;53.586;9.692;2023-04-01T18:19:01;6.70;80.30
13992;DHT22;7070;53.586;9.692;2023-04-01T18:21:36;6.70;80.30
13992;DHT22;7070;53.586;9.692;2023-04-01T18:24:14;6.70;80.10
13992;DHT22;7070;53.586;9.692;2023-04-01T18:26:45;6.50;79.80
13992;DHT22;7070;53.586;9.692;2023-04-01T18:29:26;6.50;79.90